Uirapuru, Brazil
Current Conditions -  °F | °C
As of 4:00 PM on Tuesday 21 Oct 2014 (Local Time) from SBAN Reporting Station
Few Clouds Few Clouds  
Wind Chill: 90°   Ceiling: Unl
Heat Index: 90°   Visibility: 6mi
Dew Point: 54°   Wind: 7mph
Humidity: 29%   Direction: 210°SSW
Pressure: 30"   Gusts: NA
Location:  14.29°S, 49.92°W
Report Text: SBAN 211800Z 21006KT 9999 FEW035 FEW040TCU 32/12 Q1016
Loading
Personal Weather Stations






























Interactive Weather Map
Tropical Storm Tracking
New forecast layout! Learn more

10-Day Weather Forecast

Advertisements
Track Severe Weather on mobile